Time;durP1;ratioP1;P1;durP2;ratioP2;P2;SDS_P1;SDS_P2;PMS_P1;PMS_P2;Temp;Humidity;BMP_temperature;BMP_pressure;BME280_temperature;BME280_humidity;BME280_pressure;Samples;Min_cycle;Max_cycle;Signal;HPM_P1;HPM_P2
2023/01/18 00:01:05;;;;;;;2.73;2.40;;;;;;;4.45;62.82;92687.50;5034437;28;20212;-86
2023/01/18 00:03:33;;;;;;;3.40;2.20;;;;;;;4.44;62.88;92679.09;5023850;28;20714;-87
2023/01/18 00:06:01;;;;;;;2.07;1.87;;;;;;;4.44;62.98;92681.63;5040229;28;20579;-86
2023/01/18 00:08:29;;;;;;;2.20;2.00;;;;;;;4.45;62.73;92682.41;5039695;28;20237;-86
2023/01/18 00:11:01;;;;;;;2.60;2.10;;;;;;;4.36;62.45;92681.91;5038542;28;20233;-86
2023/01/18 00:13:27;;;;;;;2.93;2.67;;;;;;;4.36;63.06;92679.38;5039389;28;20233;-86
2023/01/18 00:15:54;;;;;;;3.53;1.83;;;;;;;4.35;62.67;92679.59;5038581;28;20237;-86
2023/01/18 00:18:20;;;;;;;2.00;1.80;;;;;;;4.35;62.67;92679.59;5039932;28;20210;-85
2023/01/18 00:20:48;;;;;;;2.03;1.83;;;;;;;4.36;62.88;92684.47;5039389;28;20217;-86
2023/01/18 00:23:16;;;;;;;2.03;1.90;;;;;;;4.37;62.61;92680.16;5040301;28;20198;-86
2023/01/18 00:25:42;;;;;;;2.10;1.90;;;;;;;4.40;62.81;92677.19;5040355;28;20233;-86
2023/01/18 00:28:09;;;;;;;2.00;1.80;;;;;;;4.44;62.29;92671.44;5039849;28;20190;-85
2023/01/18 00:30:35;;;;;;;3.30;1.90;;;;;;;4.46;62.29;92674.56;5040443;28;20206;-87
2023/01/18 00:33:01;;;;;;;2.13;1.90;;;;;;;4.48;62.46;92664.94;5031980;28;20224;-86
2023/01/18 00:35:28;;;;;;;2.17;1.90;;;;;;;4.49;62.58;92669.06;5039783;28;20202;-85
2023/01/18 00:37:54;;;;;;;2.10;1.90;;;;;;;4.49;62.26;92660.63;5040327;28;20206;-86
2023/01/18 00:40:27;;;;;;;2.13;1.93;;;;;;;4.42;62.50;92663.25;5040005;28;20202;-86
2023/01/18 00:45:39;;;;;;;2.17;1.97;;;;;;;4.39;62.81;92657.81;5039704;28;20240;-86
2023/01/18 00:48:06;;;;;;;1.93;1.80;;;;;;;4.37;62.38;92663.09;5039689;28;20204;-85
2023/01/18 00:50:33;;;;;;;2.00;1.80;;;;;;;4.40;62.31;92660.16;5043304;28;20205;-86
2023/01/18 00:52:59;;;;;;;2.20;1.97;;;;;;;4.40;62.43;92657.59;5061059;28;20221;-86
2023/01/18 00:55:27;;;;;;;1.67;1.50;;;;;;;4.40;62.57;92667.00;5043194;28;20202;-86
2023/01/18 00:57:54;;;;;;;2.03;1.87;;;;;;;4.36;62.38;92666.63;5040075;28;20237;-86
2023/01/18 01:00:26;;;;;;;2.00;1.70;;;;;;;4.30;62.42;92664.94;5043627;28;20210;-86
2023/01/18 01:02:53;;;;;;;3.10;1.70;;;;;;;4.31;62.38;92663.16;5040340;28;20260;-86
2023/01/18 01:08:06;;;;;;;1.90;1.70;;;;;;;4.19;62.92;92662.31;5040892;28;20624;-86
2023/01/18 01:10:37;;;;;;;3.07;1.90;;;;;;;4.16;63.10;92661.72;5041301;28;20310;-86
2023/01/18 01:26:45;;;;;;;3.00;1.90;;;;;;;4.14;63.10;92665.47;5039940;28;20232;-86
2023/01/18 01:29:11;;;;;;;2.20;2.00;;;;;;;4.04;63.48;92671.00;4987079;28;20232;-85
2023/01/18 01:31:38;;;;;;;2.00;1.80;;;;;;;4.01;63.36;92675.75;5001907;28;20223;-87
2023/01/18 01:34:04;;;;;;;2.97;1.97;;;;;;;3.94;63.47;92673.25;5008031;28;20219;-85
2023/01/18 01:36:31;;;;;;;1.90;1.70;;;;;;;3.92;63.70;92687.97;5019114;28;20199;-86
2023/01/18 01:38:57;;;;;;;2.07;1.87;;;;;;;3.94;63.70;92685.22;5019629;28;20709;-85
2023/01/18 01:41:27;;;;;;;2.30;2.00;;;;;;;3.98;63.92;92691.44;5019194;28;20649;-86
2023/01/18 01:43:56;;;;;;;2.33;1.90;;;;;;;3.98;63.50;92689.69;5020253;28;20342;-86
2023/01/18 01:46:33;;;;;;;2.07;1.87;;;;;;;4.00;63.47;92687.72;5024243;28;20203;-87
2023/01/18 01:49:20;;;;;;;2.07;1.80;;;;;;;3.92;63.62;92697.34;5024084;28;20267;-84
2023/01/18 01:51:53;;;;;;;2.03;1.80;;;;;;;3.77;63.95;92690.81;5018387;28;20229;-86
2023/01/18 01:54:25;;;;;;;2.10;1.90;;;;;;;3.76;64.10;92696.09;5025189;28;20219;-85
2023/01/18 01:56:55;;;;;;;2.10;1.90;;;;;;;3.73;64.30;92709.22;5014827;28;20203;-86
2023/01/18 01:59:23;;;;;;;2.20;1.87;;;;;;;3.76;64.04;92703.72;5023875;28;20609;-86
2023/01/18 02:01:50;;;;;;;2.00;1.80;;;;;;;3.76;64.00;92704.50;5021914;28;20258;-86
2023/01/18 02:04:17;;;;;;;2.33;1.90;;;;;;;3.80;64.15;92710.75;5022992;28;20195;-87
2023/01/18 02:06:43;;;;;;;2.23;1.77;;;;;;;3.85;64.01;92714.44;5022596;28;20756;-88
2023/01/18 02:09:14;;;;;;;2.27;1.80;;;;;;;3.81;63.95;92712.31;5021685;28;20202;-87
2023/01/18 02:11:42;;;;;;;1.70;1.60;;;;;;;3.82;64.12;92713.09;5022281;28;20281;-87
2023/01/18 02:14:12;;;;;;;1.70;1.60;;;;;;;3.80;63.91;92715.84;5021592;28;20873;-86
2023/01/18 02:16:56;;;;;;;1.90;1.50;;;;;;;3.81;64.17;92726.81;5021549;28;20199;-86
2023/01/18 02:19:55;;;;;;;2.17;1.70;;;;;;;3.85;63.96;92732.25;5021618;28;20202;-86
2023/01/18 02:22:42;;;;;;;1.60;1.40;;;;;;;3.86;63.79;92734.56;5021737;28;20227;-86
2023/01/18 02:25:33;;;;;;;1.37;1.27;;;;;;;3.79;63.58;92747.34;5014628;28;20941;-86
2023/01/18 02:28:08;;;;;;;1.50;1.30;;;;;;;3.79;63.87;92751.66;5001627;28;20218;-86
2023/01/18 02:30:41;;;;;;;1.57;1.47;;;;;;;3.81;63.75;92747.94;5015412;28;20213;-86
2023/01/18 02:33:14;;;;;;;1.87;1.40;;;;;;;3.80;64.02;92748.91;5021367;28;20624;-86
2023/01/18 02:35:49;;;;;;;1.50;1.40;;;;;;;3.77;63.97;92756.97;5021308;28;20199;-86
2023/01/18 02:38:20;;;;;;;2.00;1.70;;;;;;;3.79;63.78;92756.75;5021070;28;20205;-87
2023/01/18 02:41:00;;;;;;;2.00;1.80;;;;;;;3.71;64.09;92760.31;5018651;28;20709;-86
2023/01/18 02:48:57;;;;;;;1.50;1.40;;;;;;;3.85;64.18;92763.56;5017610;28;20690;-87
2023/01/18 02:51:23;;;;;;;1.50;1.40;;;;;;;3.83;64.48;92773.19;5009743;28;20243;-86
2023/01/18 02:53:50;;;;;;;1.70;1.50;;;;;;;3.85;64.70;92768.63;5015353;28;20218;-86
2023/01/18 02:56:21;;;;;;;2.57;1.63;;;;;;;3.90;64.58;92766.25;4999075;28;20195;-86
2023/01/18 02:58:56;;;;;;;1.60;1.50;;;;;;;3.92;64.61;92773.69;4999468;28;20207;-86
2023/01/18 03:01:29;;;;;;;1.60;1.50;;;;;;;3.97;64.40;92769.56;5013916;28;20214;-86
2023/01/18 03:04:01;;;;;;;1.73;1.63;;;;;;;3.99;64.37;92770.13;5019144;28;20195;-86
2023/01/18 03:06:29;;;;;;;1.70;1.40;;;;;;;4.04;64.20;92766.97;5018436;28;20199;-86
2023/01/18 03:08:58;;;;;;;1.50;1.40;;;;;;;4.05;64.31;92766.75;5018981;28;20582;-85
2023/01/18 03:11:33;;;;;;;1.67;1.57;;;;;;;4.09;64.29;92770.44;5018602;28;20223;-86
2023/01/18 03:14:13;;;;;;;1.40;1.30;;;;;;;4.07;64.19;92761.47;5019072;28;20234;-86
2023/01/18 03:16:56;;;;;;;2.00;1.50;;;;;;;4.04;63.56;92767.72;5018274;28;20202;-87
2023/01/18 03:22:17;;;;;;;1.60;1.30;;;;;;;4.06;63.25;92775.16;5007951;28;20239;-87
2023/01/18 03:24:44;;;;;;;1.40;1.30;;;;;;;4.02;63.15;92779.13;5013943;28;20307;-86
2023/01/18 03:35:28;;;;;;;1.03;1.03;;;;;;;4.05;62.63;92787.13;5017874;28;20245;-86
2023/01/18 03:37:57;;;;;;;1.23;1.13;;;;;;;4.02;62.68;92790.09;5017442;28;20210;-86
2023/01/18 03:40:27;;;;;;;1.30;1.20;;;;;;;4.05;62.81;92788.88;5018276;28;20214;-86
2023/01/18 03:43:01;;;;;;;1.70;1.30;;;;;;;4.06;62.58;92788.69;5019140;28;20223;-86
2023/01/18 03:45:33;;;;;;;1.13;1.03;;;;;;;4.06;62.73;92785.34;5018295;28;20202;-86
2023/01/18 03:48:01;;;;;;;1.23;1.10;;;;;;;4.02;62.74;92782.47;5018289;28;20203;-87
2023/01/18 03:50:41;;;;;;;1.03;1.00;;;;;;;4.05;62.74;92786.34;5018155;28;20899;-86
2023/01/18 03:53:13;;;;;;;1.50;1.10;;;;;;;4.03;62.62;92798.50;5018646;28;20203;-86
2023/01/18 03:55:47;;;;;;;1.10;1.10;;;;;;;4.07;62.56;92800.41;5018271;28;20537;-87
2023/01/18 03:58:19;;;;;;;1.60;1.50;;;;;;;4.08;62.24;92793.56;5018381;28;20205;-87
2023/01/18 04:00:47;;;;;;;1.10;1.03;;;;;;;4.09;62.32;92806.09;5017576;28;20195;-85
2023/01/18 04:03:14;;;;;;;1.03;1.03;;;;;;;4.11;62.35;92798.25;5018582;28;20209;-86
2023/01/18 04:05:40;;;;;;;1.57;1.40;;;;;;;4.09;62.04;92800.22;5017834;28;20712;-87
2023/01/18 04:08:07;;;;;;;1.97;1.40;;;;;;;4.04;62.17;92798.28;5017781;28;20206;-86
2023/01/18 04:10:33;;;;;;;1.20;1.10;;;;;;;3.96;62.21;92806.19;5018224;28;20209;-86
2023/01/18 04:12:59;;;;;;;1.30;1.20;;;;;;;4.02;61.95;92797.72;5017083;28;20698;-87
2023/01/18 04:15:26;;;;;;;1.80;1.30;;;;;;;4.05;62.25;92796.50;5017174;28;20219;-86
2023/01/18 04:17:54;;;;;;;1.60;1.30;;;;;;;4.08;62.02;92793.56;5010436;28;20195;-87
2023/01/18 04:20:21;;;;;;;1.40;1.30;;;;;;;4.04;62.05;92795.72;5017960;28;20257;-85
2023/01/18 04:22:51;;;;;;;1.03;1.03;;;;;;;4.09;61.94;92787.50;5017597;28;20695;-86
2023/01/18 04:25:18;;;;;;;1.93;1.20;;;;;;;4.12;61.68;92787.88;5018069;28;20202;-86
2023/01/18 04:27:44;;;;;;;1.37;1.27;;;;;;;4.11;61.61;92786.31;5018259;28;20207;-86
2023/01/18 04:30:11;;;;;;;1.43;1.33;;;;;;;4.06;61.71;92787.91;5018144;28;20187;-86
2023/01/18 04:32:38;;;;;;;2.23;1.40;;;;;;;4.10;61.48;92789.84;5018763;28;20627;-86
2023/01/18 04:35:07;;;;;;;1.40;1.23;;;;;;;4.07;61.81;92782.59;5018181;28;20215;-85
2023/01/18 04:37:36;;;;;;;1.40;1.30;;;;;;;4.12;61.40;92777.69;5018772;28;20628;-86
2023/01/18 04:40:04;;;;;;;1.40;1.30;;;;;;;4.13;61.74;92781.78;5017982;28;20234;-86
2023/01/18 04:42:31;;;;;;;2.10;1.23;;;;;;;4.08;61.65;92779.06;5018559;28;20219;-87
2023/01/18 04:44:58;;;;;;;1.33;1.23;;;;;;;4.08;61.70;92783.38;5018003;28;20194;-86
2023/01/18 04:47:25;;;;;;;1.20;1.10;;;;;;;4.10;61.99;92776.31;5019815;28;20214;-85
2023/01/18 04:49:51;;;;;;;2.03;1.20;;;;;;;4.08;61.65;92785.94;5022208;28;20668;-86
2023/01/18 04:52:19;;;;;;;1.50;1.33;;;;;;;4.09;61.65;92779.84;5022106;28;20231;-85
2023/01/18 04:54:45;;;;;;;1.60;1.50;;;;;;;4.09;61.70;92784.94;5021328;28;20223;-86
2023/01/18 04:57:12;;;;;;;1.50;1.20;;;;;;;4.08;61.89;92791.81;5020431;28;20274;-86
2023/01/18 04:59:39;;;;;;;1.80;1.70;;;;;;;4.07;62.01;92802.19;5022532;28;20198;-86
2023/01/18 05:02:06;;;;;;;1.50;1.23;;;;;;;3.98;61.75;92796.56;5021201;28;20227;-86
2023/01/18 05:04:32;;;;;;;1.40;1.30;;;;;;;3.86;62.28;92798.19;5021256;28;20202;-85
2023/01/18 05:07:01;;;;;;;1.20;1.10;;;;;;;3.83;61.86;92803.72;5011016;28;20195;-86
2023/01/18 05:09:28;;;;;;;1.67;1.27;;;;;;;3.75;61.78;92807.25;5004793;28;20996;-86
2023/01/18 05:11:57;;;;;;;2.20;1.20;;;;;;;3.70;62.23;92804.53;5011352;28;20223;-86
2023/01/18 05:14:24;;;;;;;1.97;1.00;;;;;;;3.74;61.91;92807.47;4995386;28;20638;-86
2023/01/18 05:16:50;;;;;;;1.13;1.00;;;;;;;3.74;61.83;92799.84;5043523;28;20206;-86
2023/01/18 05:19:17;;;;;;;1.13;1.03;;;;;;;3.77;62.15;92799.44;5041111;28;20236;-85
2023/01/18 05:21:43;;;;;;;0.97;0.97;;;;;;;3.83;61.64;92808.03;5049198;28;20217;-86
2023/01/18 05:24:10;;;;;;;1.20;1.10;;;;;;;3.87;61.98;92811.69;5061106;28;20198;-85
2023/01/18 05:26:37;;;;;;;1.50;1.20;;;;;;;3.83;62.05;92816.44;5046557;28;20209;-85
2023/01/18 05:29:04;;;;;;;2.23;1.30;;;;;;;3.75;62.25;92814.91;5060227;28;20201;-86
2023/01/18 05:31:30;;;;;;;1.93;1.30;;;;;;;3.74;62.32;92818.41;5046511;28;20216;-87
2023/01/18 05:33:57;;;;;;;1.40;1.30;;;;;;;3.72;62.61;92817.84;5060647;28;20201;-86
2023/01/18 05:36:23;;;;;;;1.40;1.30;;;;;;;3.74;62.53;92825.28;5035254;28;20256;-86
2023/01/18 05:38:50;;;;;;;2.20;1.33;;;;;;;3.77;62.80;92828.19;5036112;28;20202;-86
2023/01/18 05:41:16;;;;;;;1.30;1.20;;;;;;;3.84;62.82;92837.56;5041363;28;20286;-87
2023/01/18 05:43:44;;;;;;;1.50;1.40;;;;;;;3.87;62.44;92842.22;5038053;28;20202;-86
2023/01/18 05:46:12;;;;;;;1.77;1.50;;;;;;;3.83;62.29;92849.50;5039609;28;20209;-87
2023/01/18 05:48:38;;;;;;;3.53;1.40;;;;;;;3.81;62.53;92841.28;5047911;28;20198;-85
2023/01/18 05:51:10;;;;;;;1.63;1.33;;;;;;;3.84;62.69;92847.75;5054129;28;20229;-86
2023/01/18 05:53:36;;;;;;;1.53;1.43;;;;;;;3.87;62.42;92840.47;5042338;28;20258;-87
2023/01/18 05:56:05;;;;;;;2.93;1.40;;;;;;;3.93;62.68;92854.16;5043920;28;20309;-87
2023/01/18 05:58:32;;;;;;;1.50;1.33;;;;;;;3.94;62.45;92855.72;5038762;28;20194;-87
2023/01/18 06:01:01;;;;;;;1.53;1.40;;;;;;;3.97;62.31;92851.00;5038590;28;20217;-87
2023/01/18 06:03:29;;;;;;;2.50;1.40;;;;;;;3.95;62.12;92850.44;5041679;28;20202;-88
2023/01/18 06:06:00;;;;;;;1.60;1.50;;;;;;;3.97;62.36;92858.63;5043626;28;20267;-86
2023/01/18 06:08:27;;;;;;;3.07;1.70;;;;;;;3.91;62.32;92858.66;5042799;28;20197;-86
2023/01/18 06:10:54;;;;;;;1.67;1.57;;;;;;;3.92;62.23;92861.00;5043919;28;20209;-87
2023/01/18 06:13:21;;;;;;;1.63;1.53;;;;;;;3.88;62.31;92867.47;5039170;28;20209;-87
2023/01/18 06:15:50;;;;;;;2.43;1.70;;;;;;;3.82;62.59;92870.84;5040978;28;20294;-86
2023/01/18 06:18:22;;;;;;;1.70;1.40;;;;;;;3.73;62.15;92869.50;5054735;28;20206;-89
2023/01/18 06:20:48;;;;;;;1.73;1.63;;;;;;;3.72;62.47;92870.47;5052664;28;20573;-86
2023/01/18 06:23:17;;;;;;;1.50;1.40;;;;;;;3.69;62.80;92869.13;5044349;28;20202;-86
2023/01/18 06:25:46;;;;;;;1.80;1.50;;;;;;;3.69;62.74;92883.59;5040183;28;20194;-85
2023/01/18 06:28:13;;;;;;;2.50;1.70;;;;;;;3.77;62.10;92879.09;5041396;28;20241;-85
2023/01/18 06:30:41;;;;;;;2.30;1.67;;;;;;;3.66;62.59;92884.78;5039414;28;20206;-85
2023/01/18 06:33:08;;;;;;;2.33;1.70;;;;;;;3.63;62.71;92882.66;5038912;28;20209;-86
2023/01/18 06:35:37;;;;;;;1.50;1.40;;;;;;;3.68;62.12;92882.81;5031815;28;20240;-87
2023/01/18 06:38:04;;;;;;;2.20;1.40;;;;;;;3.77;62.00;92889.25;5031265;28;20221;-86
2023/01/18 06:40:31;;;;;;;2.10;1.90;;;;;;;3.77;61.95;92888.47;5030491;28;20285;-86
2023/01/18 06:42:57;;;;;;;2.57;1.60;;;;;;;3.75;62.20;92890.44;5043158;28;20218;-85
2023/01/18 06:45:24;;;;;;;1.80;1.70;;;;;;;3.63;62.62;92897.13;5034517;28;20232;-85
2023/01/18 06:47:51;;;;;;;2.27;1.57;;;;;;;3.68;62.80;92898.06;5043426;28;20230;-86
2023/01/18 06:50:18;;;;;;;2.00;1.67;;;;;;;3.66;62.99;92894.16;5044201;28;20209;-86
2023/01/18 06:52:45;;;;;;;2.53;2.00;;;;;;;3.64;62.61;92904.56;5038650;28;20226;-87
2023/01/18 06:55:13;;;;;;;1.80;1.70;;;;;;;3.69;62.62;92911.59;5043593;28;20222;-86
2023/01/18 06:57:40;;;;;;;2.17;1.77;;;;;;;3.70;62.57;92913.94;5048689;28;20198;-86
2023/01/18 07:00:10;;;;;;;1.60;1.50;;;;;;;3.64;62.85;92913.97;5048255;28;20240;-86
2023/01/18 07:02:36;;;;;;;1.93;1.80;;;;;;;3.68;62.88;92920.97;5046870;28;20221;-86
2023/01/18 07:05:04;;;;;;;3.43;1.90;;;;;;;3.74;62.90;92920.19;5039923;28;20202;-86
2023/01/18 07:07:31;;;;;;;1.93;1.70;;;;;;;3.65;62.83;92921.41;5043517;28;20204;-87
2023/01/18 07:09:59;;;;;;;2.50;1.73;;;;;;;3.77;62.62;92919.78;5039761;28;20201;-86
2023/01/18 07:12:25;;;;;;;1.70;1.50;;;;;;;3.81;62.97;92915.09;5038629;28;20217;-85
2023/01/18 07:14:52;;;;;;;1.33;1.23;;;;;;;3.79;62.43;92922.13;5044820;28;20221;-86
2023/01/18 07:17:18;;;;;;;1.60;1.50;;;;;;;3.80;62.36;92936.41;5040869;28;20209;-86
2023/01/18 07:19:45;;;;;;;4.63;1.77;;;;;;;3.83;62.64;92930.94;5041322;28;20658;-86
2023/01/18 07:22:13;;;;;;;2.70;1.60;;;;;;;3.82;62.42;92939.56;5042807;28;20221;-86
2023/01/18 07:24:40;;;;;;;2.03;1.50;;;;;;;3.81;62.96;92943.06;5050758;28;20202;-85
2023/01/18 07:27:07;;;;;;;2.23;1.43;;;;;;;3.71;62.83;92943.47;5032669;28;20198;-86
2023/01/18 07:29:34;;;;;;;1.70;1.40;;;;;;;3.73;62.58;92944.06;5038488;28;20194;-85
2023/01/18 07:32:01;;;;;;;1.40;1.30;;;;;;;3.78;62.45;92953.66;5044131;28;20900;-86
2023/01/18 07:34:27;;;;;;;3.43;1.60;;;;;;;3.86;62.55;92945.78;5037541;28;20201;-85
2023/01/18 07:36:54;;;;;;;4.47;1.50;;;;;;;3.79;62.59;92940.72;5030934;28;20694;-86
2023/01/18 07:39:23;;;;;;;1.30;1.20;;;;;;;3.86;62.52;92945.78;5039127;28;20202;-86
2023/01/18 07:41:50;;;;;;;1.67;1.20;;;;;;;3.89;62.35;92949.69;5046356;28;20218;-87
2023/01/18 07:44:20;;;;;;;4.40;1.33;;;;;;;3.90;62.48;92956.34;5052998;28;20281;-86
2023/01/18 07:46:47;;;;;;;2.33;1.20;;;;;;;4.00;62.11;92964.34;5061679;28;20197;-86
2023/01/18 07:49:14;;;;;;;1.80;1.30;;;;;;;4.03;61.96;92961.41;5059866;28;20221;-86
2023/01/18 07:51:41;;;;;;;1.87;1.30;;;;;;;4.03;61.67;92962.19;5034523;28;20221;-86
2023/01/18 07:54:07;;;;;;;2.00;1.47;;;;;;;4.04;61.94;92968.06;5044462;28;20202;-86
2023/01/18 07:56:34;;;;;;;1.40;1.30;;;;;;;4.12;61.90;92962.72;5061600;28;20580;-86
2023/01/18 07:59:00;;;;;;;3.70;1.20;;;;;;;4.21;61.69;92969.19;5062125;28;20189;-86
2023/01/18 08:01:28;;;;;;;1.73;1.10;;;;;;;4.26;61.62;92971.88;5056897;28;20224;-88
2023/01/18 08:03:55;;;;;;;1.20;1.00;;;;;;;4.35;61.08;92977.53;5045515;28;20194;-86
2023/01/18 08:06:24;;;;;;;1.10;0.97;;;;;;;4.48;61.06;92977.47;5053240;28;20258;-86
2023/01/18 08:08:51;;;;;;;1.13;1.03;;;;;;;4.46;61.23;92985.31;5051664;28;20193;-86
2023/01/18 08:11:19;;;;;;;1.13;1.00;;;;;;;4.63;60.94;92988.16;5057630;28;20241;-85
2023/01/18 08:13:45;;;;;;;1.30;1.13;;;;;;;4.76;60.90;92994.97;5053072;28;20198;-85
2023/01/18 08:16:14;;;;;;;1.97;1.30;;;;;;;4.89;60.41;93002.53;5053331;28;20220;-86
2023/01/18 08:18:53;;;;;;;1.20;1.10;;;;;;;4.66;60.62;93005.59;5062689;28;20196;-86
2023/01/18 08:21:25;;;;;;;2.63;1.20;;;;;;;4.65;60.68;93016.78;5054468;28;20229;-86
2023/01/18 08:24:24;;;;;;;1.37;1.20;;;;;;;4.45;60.64;93019.41;5061766;28;20244;-85
2023/01/18 08:29:56;;;;;;;2.00;1.10;;;;;;;4.63;60.23;93020.50;5059877;28;20205;-86
2023/01/18 08:32:59;;;;;;;2.50;1.30;;;;;;;4.72;60.50;93032.03;5057681;28;20221;-86
2023/01/18 08:35:29;;;;;;;1.10;1.07;;;;;;;4.68;60.39;93030.88;5011884;28;20217;-85
2023/01/18 08:37:59;;;;;;;2.13;1.00;;;;;;;4.77;60.16;93034.78;5062253;28;20247;-86
2023/01/18 08:40:55;;;;;;;1.40;1.20;;;;;;;4.73;60.06;93042.03;5058383;28;20194;-85
2023/01/18 08:43:23;;;;;;;1.17;1.10;;;;;;;4.82;60.26;93047.66;5050213;28;20244;-85
2023/01/18 08:45:59;;;;;;;1.67;1.23;;;;;;;4.81;59.98;93051.22;5042500;28;20194;-84
2023/01/18 08:48:40;;;;;;;1.50;1.20;;;;;;;4.97;59.48;93063.50;5045303;28;20207;-85
2023/01/18 08:51:09;;;;;;;1.40;1.30;;;;;;;4.95;59.81;93072.31;5049660;28;20276;-85
2023/01/18 08:53:44;;;;;;;1.30;1.20;;;;;;;5.05;59.10;93070.88;5051469;28;20262;-85
2023/01/18 08:56:13;;;;;;;1.20;1.10;;;;;;;5.08;59.50;93079.91;5034236;28;20242;-85
2023/01/18 08:58:42;;;;;;;1.27;1.13;;;;;;;5.11;58.86;93080.28;5043129;28;20210;-86
2023/01/18 09:01:13;;;;;;;1.63;1.47;;;;;;;5.25;58.90;93096.28;5050470;28;20228;-85
2023/01/18 09:03:40;;;;;;;2.73;1.50;;;;;;;5.19;59.13;93100.44;5054122;28;20222;-86
2023/01/18 09:06:13;;;;;;;2.30;1.37;;;;;;;5.32;58.58;93093.69;5040934;28;20194;-85
2023/01/18 09:08:39;;;;;;;1.30;1.20;;;;;;;5.67;58.14;93097.38;5035838;28;20190;-85
2023/01/18 09:11:09;;;;;;;1.47;1.20;;;;;;;5.81;57.95;93098.06;5042466;28;20222;-85
2023/01/18 09:13:40;;;;;;;1.30;1.20;;;;;;;5.69;57.93;93097.97;5044238;28;20205;-86
2023/01/18 09:16:08;;;;;;;1.33;1.17;;;;;;;5.91;57.38;93095.88;5046914;28;20249;-86
2023/01/18 09:18:35;;;;;;;3.00;1.60;;;;;;;6.08;56.74;93102.00;5050774;28;20201;-86
2023/01/18 09:21:06;;;;;;;1.73;1.50;;;;;;;6.08;56.73;93101.22;5060874;28;20886;-85
2023/01/18 09:23:34;;;;;;;2.23;1.40;;;;;;;5.87;57.15;93108.22;5050223;28;20194;-85
2023/01/18 09:26:04;;;;;;;1.80;1.43;;;;;;;5.69;58.19;93115.03;5034880;28;20190;-86
2023/01/18 09:28:31;;;;;;;1.63;1.40;;;;;;;5.77;57.95;93125.00;5056085;28;20193;-86
2023/01/18 09:31:00;;;;;;;2.13;1.33;;;;;;;5.93;57.96;93133.97;5052045;28;20198;-85
2023/01/18 09:33:26;;;;;;;4.87;1.50;;;;;;;5.88;57.56;93139.66;5042206;28;20214;-85
2023/01/18 09:35:54;;;;;;;2.40;1.50;;;;;;;5.87;57.63;93140.63;5042926;28;20224;-86
2023/01/18 09:38:23;;;;;;;2.53;1.40;;;;;;;5.53;58.23;93141.84;5048708;28;20194;-85
2023/01/18 09:40:52;;;;;;;1.40;1.30;;;;;;;5.48;58.85;93150.13;5045478;28;20194;-86
2023/01/18 09:43:27;;;;;;;3.50;1.80;;;;;;;5.34;58.80;93161.38;5033851;28;20210;-86
2023/01/18 09:45:54;;;;;;;2.00;1.47;;;;;;;5.18;59.40;93152.44;5035345;28;20189;-86
2023/01/18 09:48:29;;;;;;;2.33;1.53;;;;;;;5.23;59.37;93146.72;5046061;28;20266;-85
2023/01/18 09:51:01;;;;;;;1.40;1.30;;;;;;;5.35;59.54;93154.50;5050502;28;20202;-84
2023/01/18 09:53:41;;;;;;;1.27;1.17;;;;;;;5.25;59.88;93169.47;5042398;28;20213;-86
2023/01/18 09:56:16;;;;;;;3.90;1.30;;;;;;;5.11;59.95;93168.75;5059657;28;20221;-85
2023/01/18 09:58:55;;;;;;;3.47;1.70;;;;;;;5.12;60.17;93180.50;5051744;28;20198;-86
2023/01/18 10:01:24;;;;;;;1.53;1.30;;;;;;;5.20;60.15;93186.16;5060255;28;20221;-87
2023/01/18 10:03:55;;;;;;;1.47;1.37;;;;;;;5.17;60.68;93204.44;5050100;28;20198;-85
2023/01/18 10:06:25;;;;;;;2.67;1.50;;;;;;;5.16;60.99;93205.41;5061169;28;20197;-85
2023/01/18 10:08:56;;;;;;;1.37;1.27;;;;;;;5.24;61.03;93206.94;5044126;28;20525;-87
2023/01/18 10:11:32;;;;;;;1.33;1.17;;;;;;;5.19;60.42;93222.88;5056690;28;20221;-85
2023/01/18 10:14:05;;;;;;;1.43;1.27;;;;;;;5.08;60.39;93217.59;5044678;28;20205;-86
2023/01/18 10:16:33;;;;;;;1.40;1.30;;;;;;;5.03;61.03;93228.38;5036189;28;20209;-86
2023/01/18 10:19:01;;;;;;;1.30;1.20;;;;;;;4.93;61.00;93225.47;5041544;28;20206;-85
2023/01/18 10:21:36;;;;;;;1.00;1.00;;;;;;;4.99;61.16;93229.00;5048801;28;20275;-85
2023/01/18 10:24:25;;;;;;;1.93;1.20;;;;;;;4.96;61.11;93230.19;5040561;28;20205;-84
2023/01/18 10:27:03;;;;;;;1.20;1.10;;;;;;;5.00;61.36;93233.13;5046081;28;20565;-84
2023/01/18 10:29:45;;;;;;;1.20;1.20;;;;;;;5.09;61.43;93232.69;5042733;28;20202;-85
2023/01/18 10:32:16;;;;;;;1.40;1.30;;;;;;;5.08;61.65;93238.00;5053515;28;20593;-85
2023/01/18 10:34:47;;;;;;;1.30;1.20;;;;;;;4.97;60.56;93236.84;5039236;28;20333;-85
2023/01/18 10:37:21;;;;;;;3.93;1.20;;;;;;;5.01;60.07;93237.22;5042296;28;20222;-85
2023/01/18 10:39:52;;;;;;;1.13;1.03;;;;;;;4.86;60.15;93235.69;5044739;28;20209;-86
2023/01/18 10:42:23;;;;;;;1.33;1.00;;;;;;;4.72;60.12;93235.91;5042689;28;20214;-85
2023/01/18 10:44:51;;;;;;;1.10;1.10;;;;;;;4.73;60.00;93243.38;5049937;28;20647;-86
2023/01/18 10:47:23;;;;;;;3.47;1.03;;;;;;;4.78;60.14;93251.19;5040882;28;20202;-84
2023/01/18 10:49:53;;;;;;;1.27;1.17;;;;;;;4.82;60.55;93264.31;5043884;28;20222;-86
2023/01/18 10:52:26;;;;;;;1.30;1.20;;;;;;;4.89;60.65;93260.00;5050692;28;20236;-86
2023/01/18 10:54:56;;;;;;;1.00;1.00;;;;;;;4.93;61.17;93276.47;5051503;28;20198;-85
2023/01/18 10:57:29;;;;;;;1.13;1.00;;;;;;;5.03;60.14;93274.28;5041772;28;20604;-85
2023/01/18 10:59:57;;;;;;;2.30;1.10;;;;;;;5.08;59.23;93276.25;5038398;28;20202;-86
2023/01/18 11:02:28;;;;;;;1.03;0.90;;;;;;;5.06;58.53;93276.44;5052903;28;20236;-85
2023/01/18 11:04:59;;;;;;;0.90;0.90;;;;;;;5.12;57.70;93287.63;5037372;28;20210;-85
2023/01/18 11:07:26;;;;;;;0.80;0.80;;;;;;;5.26;57.93;93288.34;5031432;28;20198;-86
2023/01/18 11:09:54;;;;;;;1.00;1.00;;;;;;;5.28;57.99;93294.03;5035546;28;20199;-85
2023/01/18 11:12:40;;;;;;;1.20;1.10;;;;;;;5.29;57.90;93286.19;5042083;28;20301;-85
2023/01/18 11:15:30;;;;;;;1.77;1.00;;;;;;;5.24;58.18;93293.66;5032536;28;20256;-85
2023/01/18 11:18:04;;;;;;;1.03;1.00;;;;;;;5.14;57.89;93299.19;5038898;28;20203;-86
2023/01/18 11:20:38;;;;;;;1.30;1.20;;;;;;;5.03;58.72;93304.88;5039291;28;20204;-85
2023/01/18 11:23:16;;;;;;;1.40;1.30;;;;;;;5.00;59.65;93307.84;5053803;28;20252;-85
2023/01/18 11:25:56;;;;;;;1.93;1.10;;;;;;;4.91;59.63;93311.56;5033705;28;20194;-85
2023/01/18 11:28:27;;;;;;;2.10;1.27;;;;;;;4.98;59.44;93311.56;5038923;28;20572;-86
2023/01/18 11:30:56;;;;;;;1.53;1.43;;;;;;;5.07;59.76;93320.56;5039385;28;20195;-85
2023/01/18 11:33:26;;;;;;;1.60;1.50;;;;;;;5.05;58.59;93320.78;5040450;28;20210;-85
2023/01/18 11:36:30;;;;;;;1.27;1.17;;;;;;;4.94;58.91;93328.25;5041037;28;20225;-86
2023/01/18 11:39:29;;;;;;;2.20;1.60;;;;;;;4.98;58.71;93324.31;5010686;28;20228;-85
2023/01/18 11:42:18;;;;;;;1.87;1.60;;;;;;;4.90;59.21;93335.50;5027720;28;20231;-85
2023/01/18 11:45:12;;;;;;;3.10;1.50;;;;;;;4.85;59.00;93336.09;5031877;28;20222;-85
2023/01/18 11:50:51;;;;;;;1.93;1.80;;;;;;;4.77;59.37;93349.03;5029052;28;20561;-86
2023/01/18 11:53:30;;;;;;;1.80;1.70;;;;;;;4.74;59.57;93354.53;5033847;28;20206;-85
2023/01/18 11:56:05;;;;;;;1.70;1.60;;;;;;;4.73;58.34;93355.50;5034356;28;20226;-86
2023/01/18 11:58:35;;;;;;;1.50;1.40;;;;;;;4.76;57.94;93362.75;5033162;28;20198;-86
2023/01/18 12:01:20;;;;;;;3.20;1.80;;;;;;;4.81;57.96;93364.72;5038696;28;20209;-86
2023/01/18 12:04:05;;;;;;;1.63;1.53;;;;;;;4.61;58.37;93369.03;5043957;28;20209;-85
2023/01/18 12:06:53;;;;;;;;;;;;;;;;;;;;;
2023/01/18 12:09:37;;;;;;;1.97;1.50;;;;;;;4.58;57.82;93377.84;5041603;28;20752;-85
2023/01/18 12:12:54;;;;;;;;;;;;;;;;;;;;;
2023/01/18 12:15:53;;;;;;;1.40;1.30;;;;;;;4.68;56.71;93378.22;5038280;28;20277;-85
2023/01/18 12:18:51;;;;;;;1.50;1.40;;;;;;;4.94;56.34;93390.22;5059502;28;20213;-86
2023/01/18 12:21:32;;;;;;;1.70;1.60;;;;;;;5.40;55.03;93392.72;5050343;28;20218;-85
2023/01/18 12:24:23;;;;;;;1.40;1.30;;;;;;;5.80;53.97;93392.63;5061478;28;20201;-82
2023/01/18 12:27:00;;;;;;;1.30;1.20;;;;;;;5.79;53.54;93396.94;5042011;28;20197;-85
2023/01/18 12:29:45;;;;;;;1.37;1.27;;;;;;;5.77;52.44;93408.38;5047922;28;20236;-86
2023/01/18 12:32:26;;;;;;;1.60;1.50;;;;;;;5.78;52.43;93415.03;5054726;28;20227;-87
2023/01/18 12:35:14;;;;;;;3.57;1.50;;;;;;;5.73;53.53;93422.53;5009313;28;20226;-85
2023/01/18 12:37:48;;;;;;;1.70;1.60;;;;;;;5.72;55.32;93433.72;5032586;28;20241;-85
2023/01/18 12:40:45;;;;;;;2.47;2.27;;;;;;;5.66;56.53;93437.06;5055481;28;20205;-85
2023/01/18 12:43:30;;;;;;;3.30;2.00;;;;;;;5.47;56.97;93452.19;5041409;28;20214;-86
2023/01/18 12:46:04;;;;;;;4.20;3.70;;;;;;;5.30;57.43;93460.44;5043868;28;20209;-85